createdAt,value
2019-04-25T00:00:13.447Z,10.00
2019-04-25T00:05:21.195Z,9.92
2019-04-25T00:10:26.846Z,10.04
2019-04-25T00:15:32.910Z,9.92
2019-04-25T00:20:42.649Z,9.96
2019-04-25T00:25:59.091Z,9.94
2019-04-25T00:31:06.371Z,10.04
2019-04-25T00:36:13.247Z,10.00
2019-04-25T00:41:18.708Z,9.98
2019-04-25T00:46:24.347Z,10.04
2019-04-25T00:51:30.007Z,10.04
2019-04-25T00:56:36.067Z,10.15
2019-04-25T01:01:46.854Z,9.88
2019-04-25T01:06:53.984Z,10.10
2019-04-25T01:11:59.607Z,10.13
2019-04-25T01:17:05.075Z,10.04
2019-04-25T01:22:10.887Z,10.06
2019-04-25T01:27:16.511Z,9.98
2019-04-25T01:32:23.806Z,9.93
2019-04-25T01:37:31.026Z,9.78
2019-04-25T01:42:47.956Z,9.67
2019-04-25T01:47:54.328Z,9.64
2019-04-25T01:53:00.931Z,9.72
2019-04-25T01:58:06.449Z,9.63
2019-04-25T02:03:13.631Z,9.61
2019-04-25T02:08:19.106Z,9.52
2019-04-25T02:13:26.308Z,9.37
2019-04-25T02:18:33.501Z,9.31
2019-04-25T02:23:39.507Z,9.36
2019-04-25T02:28:45.027Z,9.29
2019-04-25T02:33:50.527Z,9.19
2019-04-25T02:39:00.529Z,9.31
2019-04-25T02:44:09.245Z,9.19
2019-04-25T02:49:32.933Z,9.12
2019-04-25T02:54:30.167Z,9.09
2019-04-25T02:59:37.065Z,8.94
2019-04-25T03:04:44.466Z,8.87
2019-04-25T03:09:50.487Z,8.91
2019-04-25T03:14:56.147Z,8.93
2019-04-25T03:20:08.066Z,9.01
2019-04-25T03:25:14.501Z,9.03
2019-04-25T03:30:20.252Z,9.02
2019-04-25T03:35:25.787Z,9.13
2019-04-25T03:40:31.416Z,9.15
2019-04-25T03:45:38.026Z,9.07
2019-04-25T03:50:44.142Z,9.13
2019-04-25T03:55:49.926Z,9.19
2019-04-25T04:00:55.546Z,9.03
2019-04-25T04:06:01.027Z,9.24
2019-04-25T04:11:07.732Z,9.21
2019-04-25T04:16:15.720Z,9.45
2019-04-25T04:21:36.086Z,9.53
2019-04-25T04:26:43.104Z,9.74
2019-04-25T04:31:48.666Z,9.79
2019-04-25T04:36:54.187Z,10.13
2019-04-25T04:41:59.976Z,10.18
2019-04-25T04:47:05.485Z,10.42
2019-04-25T04:52:11.006Z,10.71
2019-04-25T04:57:27.021Z,11.02
2019-04-25T05:02:28.626Z,11.20
2019-04-25T05:07:41.787Z,11.49
2019-04-25T05:12:47.287Z,11.85
2019-04-25T05:17:54.152Z,11.98
2019-04-25T05:22:59.986Z,12.27
2019-04-25T05:28:06.108Z,12.62
2019-04-25T05:33:11.687Z,13.57
2019-04-25T05:38:17.673Z,14.16
2019-04-25T05:43:24.896Z,15.12
2019-04-25T05:48:30.927Z,15.80
2019-04-25T05:53:36.426Z,15.65
2019-04-25T05:58:43.842Z,16.46
2019-04-25T06:03:49.279Z,17.11
2019-04-25T06:08:56.367Z,16.14
2019-04-25T06:14:03.513Z,16.97
2019-04-25T06:19:14.149Z,18.14
2019-04-25T06:24:28.708Z,18.48
2019-04-25T06:29:34.803Z,18.88
2019-04-25T06:34:41.988Z,18.63
2019-04-25T06:39:47.592Z,17.71
2019-04-25T06:44:54.726Z,18.41
2019-04-25T06:50:00.247Z,19.26
2019-04-25T06:55:07.326Z,18.40
2019-04-25T07:00:15.328Z,18.27
2019-04-25T07:05:28.966Z,18.17
2019-04-25T07:10:29.452Z,17.62
2019-04-25T07:15:35.371Z,18.24
2019-04-25T07:20:40.924Z,18.45
2019-04-25T07:25:48.076Z,18.54
2019-04-25T07:31:13.826Z,18.72
2019-04-25T07:36:19.688Z,18.55
2019-04-25T07:41:26.029Z,19.01
2019-04-25T07:46:32.439Z,18.85
2019-04-25T07:51:39.228Z,19.35
2019-04-25T07:56:44.758Z,19.57
2019-04-25T08:01:50.263Z,19.49
2019-04-25T08:06:55.866Z,19.71
2019-04-25T08:12:03.265Z,19.75
2019-04-25T08:17:10.687Z,19.61
2019-04-25T08:22:17.568Z,20.06
2019-04-25T08:27:23.231Z,20.25
2019-04-25T08:32:28.927Z,19.97
2019-04-25T08:37:35.642Z,20.04
2019-04-25T08:42:41.931Z,19.89
2019-04-25T08:47:47.746Z,20.07
2019-04-25T08:52:54.392Z,19.97
2019-04-25T08:58:01.568Z,20.10
2019-04-25T09:03:24.265Z,20.26
2019-04-25T09:08:29.932Z,20.41
2019-04-25T09:13:36.854Z,20.61
2019-04-25T09:18:45.222Z,20.70
2019-04-25T09:24:26.845Z,21.10
2019-04-25T09:29:34.188Z,21.06
2019-04-25T09:34:40.776Z,21.63
2019-04-25T09:40:00.072Z,21.89
2019-04-25T09:45:27.106Z,21.41
2019-04-25T09:50:34.238Z,21.44
2019-04-25T09:55:41.744Z,21.87
2019-04-25T10:00:51.699Z,22.12
2019-04-25T10:05:57.388Z,22.60
2019-04-25T10:11:04.044Z,22.22
2019-04-25T10:16:11.866Z,22.26
2019-04-25T10:21:18.405Z,22.25
2019-04-25T10:26:24.546Z,22.36
2019-04-25T10:31:30.167Z,22.86
2019-04-25T10:36:35.705Z,22.81
2019-04-25T10:41:41.518Z,23.32
2019-04-25T10:46:47.373Z,22.93
2019-04-25T10:51:54.227Z,23.08
2019-04-25T10:56:59.968Z,22.95
2019-04-25T11:02:06.617Z,23.41
2019-04-25T11:07:13.774Z,23.28
2019-04-25T11:12:20.187Z,23.32
2019-04-25T11:17:25.753Z,22.74
2019-04-25T11:22:31.607Z,23.14
2019-04-25T11:27:37.166Z,23.30
2019-04-25T11:32:44.787Z,23.33
2019-04-25T11:37:52.567Z,23.68
2019-04-25T11:43:06.233Z,23.43
2019-04-25T11:48:09.465Z,23.66
2019-04-25T11:53:15.327Z,24.04
2019-04-25T11:58:21.149Z,23.35
2019-04-25T12:03:27.088Z,23.23
2019-04-25T12:08:33.563Z,23.28
2019-04-25T12:13:39.528Z,23.51
2019-04-25T12:18:47.977Z,23.82
2019-04-25T12:23:52.687Z,24.31
2019-04-25T12:28:58.553Z,23.98
2019-04-25T12:34:04.305Z,23.59
2019-04-25T12:39:10.806Z,23.62
2019-04-25T12:44:33.108Z,23.44
2019-04-25T12:49:38.538Z,23.61
2019-04-25T12:54:45.247Z,23.32
2019-04-25T12:59:51.274Z,23.42
2019-04-25T13:04:56.976Z,23.40
2019-04-25T13:10:02.527Z,23.32
2019-04-25T13:15:09.805Z,23.49
2019-04-25T13:20:15.966Z,23.21
2019-04-25T13:25:24.290Z,23.70
2019-04-25T13:30:40.679Z,23.54
2019-04-25T13:36:04.089Z,23.04
2019-04-25T13:41:10.068Z,22.89
2019-04-25T13:46:19.963Z,22.99
2019-04-25T13:51:24.590Z,22.91
2019-04-25T13:56:30.682Z,22.94
2019-04-25T14:01:36.542Z,22.83
2019-04-25T14:06:42.332Z,23.12
2019-04-25T14:11:47.746Z,22.93
2019-04-25T14:17:02.889Z,22.64
2019-04-25T14:22:08.167Z,22.52
2019-04-25T14:27:14.506Z,22.54
2019-04-25T14:32:21.426Z,22.31
2019-04-25T14:37:31.795Z,21.96
2019-04-25T14:42:35.367Z,21.77
2019-04-25T14:47:41.213Z,21.79
2019-04-25T14:52:46.747Z,21.42
2019-04-25T14:57:54.067Z,21.20
2019-04-25T15:02:59.689Z,21.42
2019-04-25T15:08:05.550Z,21.67
2019-04-25T15:13:11.278Z,21.51
2019-04-25T15:18:16.915Z,21.23
2019-04-25T15:23:23.189Z,20.91
2019-04-25T15:28:29.845Z,20.84
2019-04-25T15:33:35.787Z,20.75
2019-04-25T15:38:48.567Z,20.63
2019-04-25T15:44:04.746Z,20.57
2019-04-25T15:49:10.638Z,20.51
2019-04-25T15:54:16.189Z,20.17
2019-04-25T15:59:21.849Z,20.20
2019-04-25T16:04:27.368Z,20.12
2019-04-25T16:09:34.575Z,20.03
2019-04-25T16:14:40.126Z,19.90
2019-04-25T16:19:50.226Z,19.82
2019-04-25T16:24:55.898Z,19.57
2019-04-25T16:30:01.554Z,19.35
2019-04-25T16:35:09.228Z,19.12
2019-04-25T16:40:15.227Z,18.90
2019-04-25T16:45:21.553Z,18.86
2019-04-25T16:50:27.926Z,18.76
2019-04-25T16:55:34.294Z,18.69
2019-04-25T17:00:47.388Z,18.33
2019-04-25T17:05:53.036Z,18.12
2019-04-25T17:10:58.769Z,18.09
2019-04-25T17:16:06.007Z,17.74
2019-04-25T17:21:12.068Z,17.37
2019-04-25T17:26:19.206Z,16.95
2019-04-25T17:31:32.462Z,16.89
2019-04-25T17:36:40.772Z,16.52
2019-04-25T17:41:46.733Z,16.33
2019-04-25T17:46:52.247Z,16.13
2019-04-25T17:51:57.907Z,16.00
2019-04-25T17:57:03.627Z,15.72
2019-04-25T18:02:09.552Z,15.57
2019-04-25T18:07:15.233Z,15.28
2019-04-25T18:12:21.286Z,15.06
2019-04-25T18:17:27.327Z,15.05
2019-04-25T18:22:50.007Z,15.05
2019-04-25T18:28:00.225Z,14.80
2019-04-25T18:33:22.509Z,14.73
2019-04-25T18:38:32.687Z,14.51
2019-04-25T18:43:42.872Z,14.55
2019-04-25T18:48:48.625Z,14.61
2019-04-25T18:53:58.866Z,14.46
2019-04-25T18:59:15.329Z,14.43
2019-04-25T19:04:22.484Z,14.18
2019-04-25T19:09:28.114Z,14.30
2019-04-25T19:14:33.589Z,14.27
2019-04-25T19:19:39.802Z,14.16
2019-04-25T19:24:47.193Z,14.06
2019-04-25T19:29:53.513Z,14.14
2019-04-25T19:34:59.220Z,13.95
2019-04-25T19:40:07.326Z,13.83
2019-04-25T19:45:13.068Z,13.90
2019-04-25T19:50:18.507Z,13.82
2019-04-25T19:55:25.307Z,13.57
2019-04-25T20:00:30.838Z,13.57
2019-04-25T20:05:38.126Z,13.62
2019-04-25T20:10:45.233Z,13.61
2019-04-25T20:15:51.753Z,13.45
2019-04-25T20:20:58.894Z,13.46
2019-04-25T20:26:05.567Z,13.48
2019-04-25T20:31:11.047Z,13.43
2019-04-25T20:36:17.892Z,13.58
2019-04-25T20:41:23.852Z,13.45
2019-04-25T20:46:29.468Z,13.29
2019-04-25T20:51:34.987Z,13.41
2019-04-25T20:56:40.647Z,13.40
2019-04-25T21:01:47.156Z,13.22
2019-04-25T21:06:54.729Z,13.21
2019-04-25T21:12:00.532Z,13.10
2019-04-25T21:17:13.546Z,12.97
2019-04-25T21:22:19.051Z,13.01
2019-04-25T21:27:24.728Z,12.76
2019-04-25T21:32:31.827Z,12.37
2019-04-25T21:37:37.986Z,12.58
2019-04-25T21:42:45.488Z,12.48
2019-04-25T21:47:52.347Z,12.41
2019-04-25T21:52:59.143Z,12.49
2019-04-25T21:58:05.346Z,12.29
2019-04-25T22:03:11.527Z,12.27
2019-04-25T22:08:18.454Z,12.34
2019-04-25T22:13:24.064Z,12.36
2019-04-25T22:18:29.947Z,12.26
2019-04-25T22:23:35.727Z,12.22
2019-04-25T22:28:42.446Z,12.22
2019-04-25T22:33:59.744Z,11.95
2019-04-25T22:39:11.948Z,11.88
2019-04-25T22:44:19.438Z,11.79
2019-04-25T22:49:25.686Z,11.70
2019-04-25T22:54:31.526Z,11.64
2019-04-25T22:59:37.507Z,11.52
2019-04-25T23:04:44.846Z,11.60
2019-04-25T23:09:52.067Z,11.50
2019-04-25T23:14:57.947Z,11.33
2019-04-25T23:20:05.752Z,11.30
2019-04-25T23:25:14.137Z,11.15
2019-04-25T23:30:21.628Z,11.14
2019-04-25T23:35:31.363Z,11.04
2019-04-25T23:40:34.367Z,11.07
2019-04-25T23:45:40.167Z,11.09
2019-04-25T23:50:45.946Z,10.98
2019-04-25T23:55:51.566Z,10.93
